Terminal Aerodrome Forecast
Issued by NWS

Home | Current Version | Previous Version | Graphics & Text | Print | Product List | Glossary On
Versions: 1 2 3 4 5 6 7 8 9 10 11 12 13 14 15 16 17 18
606
FTUS43 KBIS 101638 AAA
TAFJMS
TAF AMD
KJMS 101638Z 1017/1112 12010KT P6SM -SN OVC040
     FM101900 11008KT P6SM OVC025
     FM110400 10004KT P6SM BKN025=

USA.gov is the U.S. government's official web portal to all federal, state and local government web resources and services.